createdAt,value
2022-10-06T00:00:29.000Z,19.98
2022-10-06T00:01:29.062Z,19.99
2022-10-06T00:02:29.073Z,19.98
2022-10-06T00:03:28.984Z,19.99
2022-10-06T00:04:28.978Z,19.94
2022-10-06T00:05:28.973Z,19.95
2022-10-06T00:06:28.970Z,19.96
2022-10-06T00:07:28.967Z,19.95
2022-10-06T00:08:29.449Z,19.94
2022-10-06T00:09:28.967Z,19.99
2022-10-06T00:10:28.975Z,19.94
2022-10-06T00:11:28.967Z,19.96
2022-10-06T00:12:28.962Z,19.98
2022-10-06T00:13:28.956Z,19.98
2022-10-06T00:14:28.965Z,19.98
2022-10-06T00:15:29.030Z,19.94
2022-10-06T00:16:28.948Z,20.03
2022-10-06T00:17:28.953Z,19.95
2022-10-06T00:18:29.394Z,20.02
2022-10-06T00:19:28.944Z,20.01
2022-10-06T00:20:28.942Z,19.92
2022-10-06T00:21:28.946Z,20.03
2022-10-06T00:22:28.942Z,20.01
2022-10-06T00:23:28.943Z,19.94
2022-10-06T00:24:28.940Z,19.92
2022-10-06T00:25:28.936Z,20.01
2022-10-06T00:26:28.946Z,19.96
2022-10-06T00:27:28.924Z,19.98
2022-10-06T00:28:29.277Z,19.92
2022-10-06T00:29:28.927Z,19.95
2022-10-06T00:30:28.925Z,19.98
2022-10-06T00:31:28.988Z,19.95
2022-10-06T00:32:28.927Z,19.94
2022-10-06T00:33:28.918Z,19.94
2022-10-06T00:34:28.924Z,19.92
2022-10-06T00:35:28.909Z,19.94
2022-10-06T00:36:28.916Z,19.83
2022-10-06T00:37:28.906Z,19.83
2022-10-06T00:38:29.350Z,19.86
2022-10-06T00:39:28.901Z,19.94
2022-10-06T00:40:28.904Z,19.98
2022-10-06T00:41:28.910Z,19.94
2022-10-06T00:42:28.913Z,19.86
2022-10-06T00:43:28.900Z,19.87
2022-10-06T00:44:28.911Z,19.95
2022-10-06T00:45:28.890Z,19.94
2022-10-06T00:46:28.980Z,19.84
2022-10-06T00:47:28.891Z,19.91
2022-10-06T00:48:29.216Z,19.86
2022-10-06T00:49:28.888Z,19.98
2022-10-06T00:50:28.880Z,19.92
2022-10-06T00:51:28.879Z,19.84
2022-10-06T00:52:28.883Z,19.86
2022-10-06T00:53:28.873Z,19.92
2022-10-06T00:54:28.876Z,19.91
2022-10-06T00:55:28.881Z,19.81
2022-10-06T00:56:28.864Z,19.87
2022-10-06T00:57:28.866Z,19.86
2022-10-06T00:58:29.189Z,19.86
2022-10-06T00:59:28.863Z,19.84
2022-10-06T01:00:28.878Z,19.88
2022-10-06T01:01:28.913Z,19.87
2022-10-06T01:02:28.883Z,19.86
2022-10-06T01:03:28.851Z,19.84
2022-10-06T01:04:28.851Z,19.86
2022-10-06T01:05:28.859Z,19.81
2022-10-06T01:06:28.855Z,19.84
2022-10-06T01:07:28.849Z,19.86
2022-10-06T01:08:29.202Z,19.81
2022-10-06T01:09:28.845Z,19.84
2022-10-06T01:10:28.850Z,19.84
2022-10-06T01:11:28.831Z,19.87
2022-10-06T01:12:28.840Z,19.88
2022-10-06T01:13:28.842Z,19.81
2022-10-06T01:14:28.856Z,19.86
2022-10-06T01:15:29.017Z,19.81
2022-10-06T01:16:28.835Z,19.83
2022-10-06T01:17:28.836Z,19.81
2022-10-06T01:18:29.249Z,19.86
2022-10-06T01:19:28.826Z,19.83
2022-10-06T01:20:28.831Z,19.84
2022-10-06T01:21:28.817Z,19.81
2022-10-06T01:22:28.817Z,19.86
2022-10-06T01:23:28.814Z,19.84
2022-10-06T01:24:28.814Z,19.86
2022-10-06T01:25:28.812Z,19.87
2022-10-06T01:26:28.830Z,19.83
2022-10-06T01:27:28.820Z,19.83
2022-10-06T01:28:29.239Z,19.77
2022-10-06T01:29:28.807Z,19.74
2022-10-06T01:30:28.855Z,19.83
2022-10-06T01:31:28.839Z,19.77
2022-10-06T01:32:28.800Z,19.83
2022-10-06T01:33:28.794Z,19.86
2022-10-06T01:34:28.803Z,19.83
2022-10-06T01:35:28.800Z,19.76
2022-10-06T01:36:28.785Z,19.87
2022-10-06T01:37:28.791Z,19.80
2022-10-06T01:38:29.094Z,19.76
2022-10-06T01:39:28.774Z,19.80
2022-10-06T01:40:28.782Z,19.73
2022-10-06T01:41:28.779Z,19.74
2022-10-06T01:42:28.769Z,19.78
2022-10-06T01:43:28.790Z,19.76
2022-10-06T01:44:28.774Z,19.86
2022-10-06T01:45:28.766Z,19.74
2022-10-06T01:46:28.840Z,19.81
2022-10-06T01:47:28.761Z,19.74
2022-10-06T01:48:29.087Z,19.77
2022-10-06T01:49:28.761Z,19.74
2022-10-06T01:50:28.767Z,19.81
2022-10-06T01:51:28.759Z,19.84
2022-10-06T01:52:28.755Z,19.78
2022-10-06T01:53:28.756Z,19.74
2022-10-06T01:54:28.760Z,19.74
2022-10-06T01:55:28.750Z,19.78
2022-10-06T01:56:28.743Z,19.80
2022-10-06T01:57:28.735Z,19.73
2022-10-06T01:58:29.086Z,19.76
2022-10-06T01:59:28.729Z,19.76
2022-10-06T02:00:28.742Z,19.78
2022-10-06T02:01:28.759Z,19.77
2022-10-06T02:02:28.756Z,19.73
2022-10-06T02:03:28.732Z,19.77
2022-10-06T02:04:28.722Z,19.76
2022-10-06T02:05:28.717Z,19.77
2022-10-06T02:06:28.754Z,19.77
2022-10-06T02:07:28.713Z,19.69
2022-10-06T02:08:29.036Z,19.73
2022-10-06T02:09:28.716Z,19.71
2022-10-06T02:10:28.719Z,19.71
2022-10-06T02:11:28.724Z,19.78
2022-10-06T02:12:28.711Z,19.69
2022-10-06T02:13:28.706Z,19.77
2022-10-06T02:14:28.715Z,19.69
2022-10-06T02:15:28.697Z,19.74
2022-10-06T02:16:28.921Z,19.66
2022-10-06T02:17:28.698Z,19.74
2022-10-06T02:18:29.098Z,19.73
2022-10-06T02:19:28.697Z,19.74
2022-10-06T02:20:28.695Z,19.69
2022-10-06T02:21:28.683Z,19.76
2022-10-06T02:22:28.681Z,19.71
2022-10-06T02:23:28.689Z,19.68
2022-10-06T02:24:28.685Z,19.76
2022-10-06T02:25:28.685Z,19.80
2022-10-06T02:26:28.681Z,19.71
2022-10-06T02:27:28.677Z,19.68
2022-10-06T02:28:29.285Z,19.66
2022-10-06T02:29:28.677Z,19.66
2022-10-06T02:30:28.675Z,19.68
2022-10-06T02:31:28.726Z,19.63
2022-10-06T02:32:28.665Z,19.66
2022-10-06T02:33:28.657Z,19.68
2022-10-06T02:34:28.684Z,19.69
2022-10-06T02:35:28.652Z,19.66
2022-10-06T02:36:28.659Z,19.68
2022-10-06T02:37:28.646Z,19.71
2022-10-06T02:38:28.961Z,19.63
2022-10-06T02:39:28.656Z,19.69
2022-10-06T02:40:28.650Z,19.65
2022-10-06T02:41:28.647Z,19.78
2022-10-06T02:42:28.642Z,19.62
2022-10-06T02:43:28.634Z,19.65
2022-10-06T02:44:28.646Z,19.68
2022-10-06T02:45:28.632Z,19.74
2022-10-06T02:46:28.715Z,19.71
2022-10-06T02:47:28.638Z,19.62
2022-10-06T02:48:28.896Z,19.68
2022-10-06T02:49:28.622Z,19.62
2022-10-06T02:50:28.681Z,19.71
2022-10-06T02:51:28.618Z,19.68
2022-10-06T02:52:28.616Z,19.68
2022-10-06T02:53:28.617Z,19.69
2022-10-06T02:54:28.614Z,19.68
2022-10-06T02:55:28.607Z,19.68
2022-10-06T02:56:28.612Z,19.66
2022-10-06T02:57:28.617Z,19.73
2022-10-06T02:58:28.943Z,19.63
2022-10-06T02:59:28.607Z,19.63
2022-10-06T03:00:28.607Z,19.61
2022-10-06T03:01:28.657Z,19.71
2022-10-06T03:02:28.755Z,19.74
2022-10-06T03:03:28.598Z,19.68
2022-10-06T03:04:28.590Z,19.65
2022-10-06T03:05:28.605Z,19.63
2022-10-06T03:06:28.610Z,19.61
2022-10-06T03:07:28.582Z,19.68
2022-10-06T03:08:28.902Z,19.68
2022-10-06T03:09:28.587Z,19.58
2022-10-06T03:10:28.580Z,19.63
2022-10-06T03:11:28.580Z,19.58
2022-10-06T03:12:28.571Z,19.66
2022-10-06T03:13:28.574Z,19.58
2022-10-06T03:14:28.578Z,19.69
2022-10-06T03:15:28.568Z,19.59
2022-10-06T03:16:28.642Z,19.66
2022-10-06T03:17:28.564Z,19.63
2022-10-06T03:18:28.925Z,19.65
2022-10-06T03:19:28.558Z,19.63
2022-10-06T03:20:28.565Z,19.59
2022-10-06T03:21:28.556Z,19.66
2022-10-06T03:22:28.567Z,19.62
2022-10-06T03:23:28.558Z,19.63
2022-10-06T03:24:28.542Z,19.56
2022-10-06T03:25:29.961Z,19.54
2022-10-06T03:26:28.539Z,19.56
2022-10-06T03:27:31.360Z,19.58
2022-10-06T03:29:19.838Z,19.55
2022-10-06T03:30:19.227Z,19.63
2022-10-06T03:31:19.301Z,19.56
2022-10-06T03:32:19.221Z,19.63
2022-10-06T03:33:19.217Z,19.58
2022-10-06T03:34:19.223Z,19.56
2022-10-06T03:35:19.211Z,19.54
2022-10-06T03:36:19.217Z,19.59
2022-10-06T03:37:19.265Z,19.59
2022-10-06T03:38:19.316Z,19.62
2022-10-06T03:39:19.208Z,19.54
2022-10-06T03:40:19.207Z,19.59
2022-10-06T03:41:19.209Z,19.59
2022-10-06T03:42:19.199Z,19.61
2022-10-06T03:43:19.201Z,19.59
2022-10-06T03:44:19.205Z,19.56
2022-10-06T03:45:19.225Z,19.59
2022-10-06T03:46:19.261Z,19.62
2022-10-06T03:47:19.184Z,19.63
2022-10-06T03:48:19.193Z,19.55
2022-10-06T03:49:19.195Z,19.56
2022-10-06T03:50:19.189Z,19.56
2022-10-06T03:51:19.189Z,19.62
2022-10-06T03:52:23.583Z,19.58
2022-10-06T03:53:19.175Z,19.59
2022-10-06T03:54:19.187Z,19.56
2022-10-06T03:55:19.172Z,19.58
2022-10-06T03:56:19.165Z,19.55
2022-10-06T03:57:19.166Z,19.58
2022-10-06T03:58:19.165Z,19.56
2022-10-06T03:59:19.178Z,19.56
2022-10-06T04:00:19.154Z,19.55
2022-10-06T04:01:23.497Z,19.55
2022-10-06T04:02:19.306Z,19.58
2022-10-06T04:03:19.159Z,19.51
2022-10-06T04:04:19.158Z,19.58
2022-10-06T04:05:19.153Z,19.55
2022-10-06T04:06:19.142Z,19.59
2022-10-06T04:07:19.149Z,19.51
2022-10-06T04:08:19.146Z,19.58
2022-10-06T04:09:19.134Z,19.56
2022-10-06T04:10:19.154Z,19.55
2022-10-06T04:11:19.138Z,19.51
2022-10-06T04:12:19.131Z,19.50
2022-10-06T04:13:19.133Z,19.48
2022-10-06T04:14:19.119Z,19.48
2022-10-06T04:15:19.135Z,19.55
2022-10-06T04:16:19.234Z,19.55
2022-10-06T04:17:19.127Z,19.51
2022-10-06T04:18:19.119Z,19.50
2022-10-06T04:19:19.121Z,19.51
2022-10-06T04:20:19.113Z,19.51
2022-10-06T04:21:19.115Z,19.48
2022-10-06T04:22:19.104Z,19.43
2022-10-06T04:23:19.108Z,19.47
2022-10-06T04:24:19.111Z,19.48
2022-10-06T04:25:19.119Z,19.48
2022-10-06T04:26:19.125Z,19.43
2022-10-06T04:27:19.089Z,19.43
2022-10-06T04:28:19.171Z,19.50
2022-10-06T04:29:19.086Z,19.43
2022-10-06T04:30:19.082Z,19.43
2022-10-06T04:31:19.174Z,19.48
2022-10-06T04:32:19.088Z,19.44
2022-10-06T04:33:19.079Z,19.54
2022-10-06T04:34:19.088Z,19.43
2022-10-06T04:35:19.074Z,19.44
2022-10-06T04:36:19.082Z,19.44
2022-10-06T04:37:19.068Z,19.43
2022-10-06T04:38:19.064Z,19.48
2022-10-06T04:39:19.076Z,19.48
2022-10-06T04:40:19.060Z,19.48
2022-10-06T04:41:19.061Z,19.50
2022-10-06T04:42:19.092Z,19.50
2022-10-06T04:43:19.060Z,19.51
2022-10-06T04:44:19.058Z,19.51
2022-10-06T04:45:19.050Z,19.44
2022-10-06T04:46:41.417Z,19.46
2022-10-06T04:47:19.051Z,19.47
2022-10-06T04:48:19.059Z,19.46
2022-10-06T04:49:20.510Z,19.50
2022-10-06T04:50:19.041Z,19.47
2022-10-06T04:51:19.041Z,19.48
2022-10-06T04:52:19.091Z,19.44
2022-10-06T04:53:19.030Z,19.51
2022-10-06T04:54:19.181Z,19.44
2022-10-06T04:55:19.037Z,19.48
2022-10-06T04:56:19.031Z,19.47
2022-10-06T04:57:19.022Z,19.47
2022-10-06T04:58:19.050Z,19.44
2022-10-06T04:59:19.024Z,19.47
2022-10-06T05:00:19.010Z,19.44
2022-10-06T05:01:19.070Z,19.44
2022-10-06T05:02:19.076Z,19.41
2022-10-06T05:03:19.015Z,19.48
2022-10-06T05:04:19.008Z,19.50
2022-10-06T05:05:19.008Z,19.39
2022-10-06T05:06:19.009Z,19.43
2022-10-06T05:07:19.015Z,19.46
2022-10-06T05:08:18.996Z,19.44
2022-10-06T05:09:19.029Z,19.46
2022-10-06T05:10:18.997Z,19.47
2022-10-06T05:11:22.438Z,19.51
2022-10-06T05:12:18.988Z,19.43
2022-10-06T05:13:18.985Z,19.46
2022-10-06T05:14:19.008Z,19.44
2022-10-06T05:15:18.980Z,19.43
2022-10-06T05:16:19.063Z,19.44
2022-10-06T05:17:18.978Z,19.47
2022-10-06T05:18:18.978Z,19.47
2022-10-06T05:19:19.002Z,19.51
2022-10-06T05:20:18.970Z,19.47
2022-10-06T05:21:18.976Z,19.46
2022-10-06T05:22:18.972Z,19.37
2022-10-06T05:23:18.968Z,19.43
2022-10-06T05:24:18.966Z,19.41
2022-10-06T05:25:18.955Z,19.46
2022-10-06T05:26:18.956Z,19.47
2022-10-06T05:27:18.964Z,19.46
2022-10-06T05:28:19.074Z,19.44
2022-10-06T05:29:18.951Z,19.46
2022-10-06T05:30:18.969Z,19.41
2022-10-06T05:31:19.024Z,19.41
2022-10-06T05:32:18.945Z,19.46
2022-10-06T05:33:18.942Z,19.44
2022-10-06T05:34:18.945Z,19.50
2022-10-06T05:35:18.944Z,19.40
2022-10-06T05:36:18.928Z,19.50
2022-10-06T05:37:18.947Z,19.44
2022-10-06T05:38:18.936Z,19.47
2022-10-06T05:39:18.923Z,19.50
2022-10-06T05:40:18.939Z,19.48
2022-10-06T05:41:18.924Z,19.37
2022-10-06T05:42:18.916Z,19.46
2022-10-06T05:43:18.919Z,19.51
2022-10-06T05:44:18.911Z,19.51
2022-10-06T05:45:18.908Z,19.46
2022-10-06T05:46:19.015Z,19.58
2022-10-06T05:47:18.909Z,19.51
2022-10-06T05:48:18.913Z,19.55
2022-10-06T05:49:18.902Z,19.48
2022-10-06T05:50:20.722Z,19.56
2022-10-06T05:51:18.900Z,19.55
2022-10-06T05:52:18.914Z,19.56
2022-10-06T05:53:18.890Z,19.58
2022-10-06T05:54:18.894Z,19.55
2022-10-06T05:55:18.888Z,19.59
2022-10-06T05:56:18.881Z,19.59
2022-10-06T05:57:18.916Z,19.59
2022-10-06T05:58:18.889Z,19.58
2022-10-06T05:59:18.883Z,19.59
2022-10-06T06:00:18.881Z,19.63
2022-10-06T06:01:18.942Z,19.58
2022-10-06T06:02:18.920Z,19.58
2022-10-06T06:03:18.880Z,19.59
2022-10-06T06:04:18.873Z,19.59
2022-10-06T06:05:18.887Z,19.69
2022-10-06T06:06:18.861Z,19.58
2022-10-06T06:07:18.868Z,19.56
2022-10-06T06:08:18.864Z,19.58
2022-10-06T06:09:18.865Z,19.55
2022-10-06T06:10:18.867Z,19.56
2022-10-06T06:11:18.862Z,19.56
2022-10-06T06:12:18.848Z,19.61
2022-10-06T06:13:18.857Z,19.56
2022-10-06T06:14:18.853Z,19.59
2022-10-06T06:15:18.857Z,19.55
2022-10-06T06:16:18.872Z,19.66
2022-10-06T06:17:18.843Z,19.62
2022-10-06T06:18:18.975Z,19.58
2022-10-06T06:19:18.833Z,19.58
2022-10-06T06:20:18.840Z,19.56
2022-10-06T06:21:18.847Z,19.63
2022-10-06T06:22:18.834Z,19.63
2022-10-06T06:23:18.824Z,19.65
2022-10-06T06:24:18.831Z,19.56
2022-10-06T06:25:18.830Z,19.59
2022-10-06T06:26:18.824Z,19.63
2022-10-06T06:27:18.827Z,19.59
2022-10-06T06:28:18.862Z,19.61
2022-10-06T06:29:18.815Z,19.62
2022-10-06T06:30:18.826Z,19.51
2022-10-06T06:31:20.337Z,19.62
2022-10-06T06:32:18.819Z,19.58
2022-10-06T06:33:18.829Z,19.62
2022-10-06T06:34:18.829Z,19.56
2022-10-06T06:35:18.807Z,19.58
2022-10-06T06:36:18.817Z,19.56
2022-10-06T06:37:18.817Z,19.62
2022-10-06T06:38:18.797Z,19.59
2022-10-06T06:39:18.801Z,19.58
2022-10-06T06:40:18.792Z,19.58
2022-10-06T06:41:18.787Z,19.55
2022-10-06T06:42:18.802Z,19.61
2022-10-06T06:43:18.816Z,19.56
2022-10-06T06:44:18.872Z,19.59
2022-10-06T06:45:18.809Z,19.61
2022-10-06T06:46:19.005Z,19.56
2022-10-06T06:47:20.839Z,19.56
2022-10-06T06:48:18.778Z,19.55
2022-10-06T06:49:18.785Z,19.58
2022-10-06T06:50:18.854Z,19.61
2022-10-06T06:51:18.773Z,19.54
2022-10-06T06:52:18.764Z,19.56
2022-10-06T06:53:18.775Z,19.51
2022-10-06T06:54:18.773Z,19.59
2022-10-06T06:55:18.771Z,19.56
2022-10-06T06:56:18.774Z,19.55
2022-10-06T06:57:18.760Z,19.56
2022-10-06T06:58:18.763Z,19.58
2022-10-06T06:59:18.817Z,19.50
2022-10-06T07:00:18.759Z,19.55
2022-10-06T07:01:18.798Z,19.58
2022-10-06T07:02:18.966Z,19.51
2022-10-06T07:03:38.392Z,19.59
2022-10-06T07:04:18.738Z,19.56
2022-10-06T07:05:18.742Z,19.50
2022-10-06T07:06:18.810Z,19.59
2022-10-06T07:07:18.735Z,19.54
2022-10-06T07:08:18.733Z,19.59
2022-10-06T07:09:18.729Z,19.56
2022-10-06T07:10:18.736Z,19.55
2022-10-06T07:11:18.738Z,19.55
2022-10-06T07:12:18.724Z,19.59
2022-10-06T07:13:18.729Z,19.59
2022-10-06T07:14:18.743Z,19.50
2022-10-06T07:15:18.716Z,19.56
2022-10-06T07:16:18.807Z,19.51
2022-10-06T07:17:18.726Z,19.55
2022-10-06T07:18:18.721Z,19.56
2022-10-06T07:19:22.549Z,19.50
2022-10-06T07:20:18.712Z,19.55
2022-10-06T07:21:18.710Z,19.48
2022-10-06T07:22:18.773Z,19.51
2022-10-06T07:23:18.700Z,19.55
2022-10-06T07:24:18.715Z,19.55
2022-10-06T07:25:24.389Z,19.55
2022-10-06T07:26:18.716Z,19.50
2022-10-06T07:27:18.700Z,19.56
2022-10-06T07:28:18.751Z,19.56
2022-10-06T07:29:18.689Z,19.51
2022-10-06T07:30:18.688Z,19.58
2022-10-06T07:31:18.734Z,19.50
2022-10-06T07:32:18.687Z,19.55
2022-10-06T07:33:18.692Z,19.55
2022-10-06T07:34:18.679Z,19.44
2022-10-06T07:35:18.684Z,19.55
2022-10-06T07:36:18.675Z,19.51
2022-10-06T07:37:18.692Z,19.50
2022-10-06T07:38:18.696Z,19.54
2022-10-06T07:39:18.680Z,19.54
2022-10-06T07:40:18.675Z,19.55
2022-10-06T07:41:20.068Z,19.56
2022-10-06T07:42:18.663Z,19.54
2022-10-06T07:43:18.659Z,19.59
2022-10-06T07:44:18.660Z,19.54
2022-10-06T07:45:18.693Z,19.50
2022-10-06T07:46:18.728Z,19.51
2022-10-06T07:47:18.656Z,19.51
2022-10-06T07:48:18.651Z,19.58
2022-10-06T07:49:18.652Z,19.51
2022-10-06T07:50:18.645Z,19.47
2022-10-06T07:51:18.654Z,19.48
2022-10-06T07:52:18.642Z,19.51
2022-10-06T07:53:18.640Z,19.59
2022-10-06T07:54:18.660Z,19.55
2022-10-06T07:55:18.647Z,19.59
2022-10-06T07:56:18.632Z,19.55
2022-10-06T07:57:18.638Z,19.56
2022-10-06T07:58:18.652Z,19.58
2022-10-06T07:59:18.638Z,19.56
2022-10-06T08:00:18.678Z,19.55
2022-10-06T08:01:18.673Z,19.48
2022-10-06T08:02:18.625Z,19.50
2022-10-06T08:03:18.710Z,19.55
2022-10-06T08:04:18.622Z,19.56
2022-10-06T08:05:18.615Z,19.51
2022-10-06T08:06:18.623Z,19.48
2022-10-06T08:07:18.619Z,19.51
2022-10-06T08:08:18.616Z,19.54
2022-10-06T08:09:18.610Z,19.55
2022-10-06T08:10:18.630Z,19.56
2022-10-06T08:11:18.609Z,19.56
2022-10-06T08:12:18.601Z,19.61
2022-10-06T08:13:18.603Z,19.61
2022-10-06T08:14:18.607Z,19.58
2022-10-06T08:15:18.594Z,19.59
2022-10-06T08:16:18.660Z,19.58
2022-10-06T08:17:18.595Z,19.56
2022-10-06T08:18:41.204Z,19.58
2022-10-06T08:19:18.582Z,19.59
2022-10-06T08:20:18.598Z,19.62
2022-10-06T08:21:18.581Z,19.62
2022-10-06T08:22:18.579Z,19.61
2022-10-06T08:23:18.599Z,19.61
2022-10-06T08:24:18.581Z,19.59
2022-10-06T08:25:18.570Z,19.63
2022-10-06T08:26:18.598Z,19.59
2022-10-06T08:27:18.652Z,19.61
2022-10-06T08:28:18.665Z,19.62
2022-10-06T08:29:18.564Z,19.59
2022-10-06T08:30:18.572Z,19.59
2022-10-06T08:31:18.759Z,19.62
2022-10-06T08:32:18.559Z,19.66
2022-10-06T08:33:21.283Z,19.56
2022-10-06T08:34:18.562Z,19.56
2022-10-06T08:35:18.560Z,19.61
2022-10-06T08:36:18.564Z,19.65
2022-10-06T08:37:20.586Z,19.61
2022-10-06T08:38:18.550Z,19.59
2022-10-06T08:39:18.549Z,19.56
2022-10-06T08:40:18.562Z,19.58
2022-10-06T08:41:18.573Z,19.59
2022-10-06T08:42:18.556Z,19.59
2022-10-06T08:43:18.547Z,19.62
2022-10-06T08:44:18.567Z,19.66
2022-10-06T08:45:18.533Z,19.69
2022-10-06T08:46:21.062Z,19.62
2022-10-06T08:47:18.533Z,19.65
2022-10-06T08:48:18.525Z,19.59
2022-10-06T08:49:18.535Z,19.56
2022-10-06T08:50:18.525Z,19.69
2022-10-06T08:51:18.525Z,19.66
2022-10-06T08:52:18.525Z,19.71
2022-10-06T08:53:18.514Z,19.65
2022-10-06T08:54:18.528Z,19.68
2022-10-06T08:55:18.521Z,19.63
2022-10-06T08:56:18.510Z,19.66
2022-10-06T08:57:18.519Z,19.68
2022-10-06T08:58:18.524Z,19.73
2022-10-06T08:59:18.509Z,19.73
2022-10-06T09:00:21.386Z,19.66
2022-10-06T09:01:18.666Z,19.66
2022-10-06T09:02:18.579Z,19.71
2022-10-06T09:03:18.528Z,19.63
2022-10-06T09:04:18.531Z,19.76
2022-10-06T09:05:18.535Z,19.63
2022-10-06T09:06:18.568Z,19.76
2022-10-06T09:07:18.497Z,19.73
2022-10-06T09:08:18.784Z,19.68
2022-10-06T09:09:18.534Z,19.62
2022-10-06T09:10:18.591Z,19.65
2022-10-06T09:11:18.501Z,19.68
2022-10-06T09:12:18.560Z,19.73
2022-10-06T09:13:21.872Z,19.66
2022-10-06T09:14:18.530Z,19.73
2022-10-06T09:15:18.502Z,19.63
2022-10-06T09:16:18.508Z,19.68
2022-10-06T09:17:18.506Z,19.65
2022-10-06T09:18:18.498Z,19.62
2022-10-06T09:19:18.499Z,19.66
2022-10-06T09:20:18.546Z,19.65
2022-10-06T09:21:18.488Z,19.63
2022-10-06T09:22:18.487Z,19.69
2022-10-06T09:23:18.471Z,19.65
2022-10-06T09:24:18.512Z,19.63
2022-10-06T09:25:18.520Z,19.68
2022-10-06T09:26:18.484Z,19.66
2022-10-06T09:27:18.493Z,19.66
2022-10-06T09:28:18.511Z,19.65
2022-10-06T09:29:18.468Z,19.61
2022-10-06T09:30:18.534Z,19.65
2022-10-06T09:31:18.483Z,19.74
2022-10-06T09:32:18.458Z,19.63
2022-10-06T09:33:18.450Z,19.62
2022-10-06T09:34:18.440Z,19.61
2022-10-06T09:35:18.452Z,19.69
2022-10-06T09:36:18.450Z,19.63
2022-10-06T09:37:18.462Z,19.69
2022-10-06T09:38:18.441Z,19.68
2022-10-06T09:39:18.429Z,19.73
2022-10-06T09:40:18.436Z,19.77
2022-10-06T09:41:18.789Z,19.61
2022-10-06T09:42:18.470Z,19.65
2022-10-06T09:43:18.435Z,19.65
2022-10-06T09:44:18.515Z,19.65
2022-10-06T09:45:18.438Z,19.66
2022-10-06T09:46:18.554Z,19.65
2022-10-06T09:47:18.455Z,19.65
2022-10-06T09:48:20.955Z,19.69
2022-10-06T09:49:18.451Z,19.69
2022-10-06T09:50:18.646Z,19.73
2022-10-06T09:51:18.530Z,19.73
2022-10-06T09:52:18.439Z,19.66
2022-10-06T09:53:18.415Z,19.73
2022-10-06T09:54:18.414Z,19.71
2022-10-06T09:55:18.410Z,19.68
2022-10-06T09:56:18.410Z,19.66
2022-10-06T09:57:18.404Z,19.71
2022-10-06T09:58:18.404Z,19.66
2022-10-06T09:59:18.401Z,19.65
2022-10-06T10:00:18.411Z,19.68
2022-10-06T10:01:18.477Z,19.69
2022-10-06T10:02:18.417Z,19.69
2022-10-06T10:03:18.533Z,19.74
2022-10-06T10:04:21.290Z,19.69
2022-10-06T10:05:18.384Z,19.71
2022-10-06T10:06:18.392Z,19.71
2022-10-06T10:07:18.377Z,19.71
2022-10-06T10:08:18.382Z,19.76
2022-10-06T10:09:20.685Z,19.74
2022-10-06T10:10:18.373Z,19.71
2022-10-06T10:11:18.377Z,19.71
2022-10-06T10:12:18.378Z,19.74
2022-10-06T10:13:18.367Z,19.68
2022-10-06T10:14:18.378Z,19.69
2022-10-06T10:15:18.403Z,19.69
2022-10-06T10:16:18.440Z,19.66
2022-10-06T10:17:18.361Z,19.74
2022-10-06T10:18:18.386Z,19.73
2022-10-06T10:19:18.370Z,19.71
2022-10-06T10:20:18.368Z,19.74
2022-10-06T10:21:18.356Z,19.74
2022-10-06T10:22:18.351Z,19.65
2022-10-06T10:23:18.355Z,19.76
2022-10-06T10:24:18.345Z,19.73
2022-10-06T10:25:18.348Z,19.77
2022-10-06T10:26:18.354Z,19.68
2022-10-06T10:27:18.349Z,19.66
2022-10-06T10:28:18.430Z,19.71
2022-10-06T10:29:18.348Z,19.61
2022-10-06T10:30:18.335Z,19.74
2022-10-06T10:31:18.423Z,19.74
2022-10-06T10:32:18.341Z,19.66
2022-10-06T10:33:18.394Z,19.68
2022-10-06T10:34:24.188Z,19.69
2022-10-06T10:35:18.344Z,19.71
2022-10-06T10:36:18.385Z,19.74
2022-10-06T10:37:18.327Z,19.69
2022-10-06T10:38:18.331Z,19.68
2022-10-06T10:39:18.321Z,19.68
2022-10-06T10:40:18.325Z,19.71
2022-10-06T10:41:18.328Z,19.66
2022-10-06T10:42:18.319Z,19.73
2022-10-06T10:43:18.326Z,19.69
2022-10-06T10:44:18.308Z,19.68
2022-10-06T10:45:18.348Z,19.71
2022-10-06T10:46:18.390Z,19.63
2022-10-06T10:47:18.312Z,19.65
2022-10-06T10:48:18.313Z,19.73
2022-10-06T10:49:18.362Z,19.71
2022-10-06T10:50:18.315Z,19.65
2022-10-06T10:51:18.298Z,19.65
2022-10-06T10:52:18.294Z,19.69
2022-10-06T10:54:18.304Z,19.69
2022-10-06T10:55:18.305Z,19.76
2022-10-06T10:56:18.288Z,19.71
2022-10-06T10:57:18.285Z,19.74
2022-10-06T10:58:18.287Z,19.66
2022-10-06T10:59:18.289Z,19.73
2022-10-06T11:00:18.285Z,19.65
2022-10-06T11:01:18.343Z,19.62
2022-10-06T11:02:18.324Z,19.65
2022-10-06T11:03:18.288Z,19.69
2022-10-06T11:04:18.287Z,19.69
2022-10-06T11:05:18.269Z,19.74
2022-10-06T11:06:18.289Z,19.71
2022-10-06T11:07:18.284Z,19.68
2022-10-06T11:08:18.273Z,19.71
2022-10-06T11:09:18.272Z,19.69
2022-10-06T11:10:18.275Z,19.74
2022-10-06T11:11:18.258Z,19.68
2022-10-06T11:12:18.269Z,19.71
2022-10-06T11:13:18.261Z,19.69
2022-10-06T11:14:18.253Z,19.78
2022-10-06T11:15:18.257Z,19.73
2022-10-06T11:16:18.334Z,19.77
2022-10-06T11:17:18.264Z,19.71
2022-10-06T11:18:21.513Z,19.74
2022-10-06T11:19:18.254Z,19.73
2022-10-06T11:20:18.248Z,19.66
2022-10-06T11:21:18.240Z,19.69
2022-10-06T11:22:18.257Z,19.61
2022-10-06T11:23:18.247Z,19.63
2022-10-06T11:24:18.238Z,19.66
2022-10-06T11:25:18.232Z,19.63
2022-10-06T11:26:18.237Z,19.65
2022-10-06T11:27:18.236Z,19.65
2022-10-06T11:28:18.252Z,19.66
2022-10-06T11:29:18.224Z,19.73
2022-10-06T11:30:18.220Z,19.69
2022-10-06T11:31:22.547Z,19.65
2022-10-06T11:32:18.219Z,19.62
2022-10-06T11:33:18.218Z,19.65
2022-10-06T11:34:18.211Z,19.65
2022-10-06T11:35:18.213Z,19.71
2022-10-06T11:36:18.216Z,19.63
2022-10-06T11:37:18.211Z,19.65
2022-10-06T11:38:18.235Z,19.63
2022-10-06T11:39:18.220Z,19.66
2022-10-06T11:40:18.218Z,19.71
2022-10-06T11:41:18.208Z,19.68
2022-10-06T11:42:18.233Z,19.62
2022-10-06T11:43:18.207Z,19.71
2022-10-06T11:44:18.198Z,19.65
2022-10-06T11:45:18.193Z,19.68
2022-10-06T11:46:18.303Z,19.66
2022-10-06T11:47:18.198Z,19.69
2022-10-06T11:48:18.201Z,19.65
2022-10-06T11:49:18.183Z,19.66
2022-10-06T11:50:18.195Z,19.65
2022-10-06T11:51:18.194Z,19.71
2022-10-06T11:52:18.181Z,19.69
2022-10-06T11:53:18.189Z,19.63
2022-10-06T11:54:18.193Z,19.65
2022-10-06T11:55:18.179Z,19.68
2022-10-06T11:56:18.197Z,19.74
2022-10-06T11:57:18.167Z,19.74
2022-10-06T11:59:18.169Z,19.73
2022-10-06T12:00:18.171Z,19.66
2022-10-06T12:01:18.164Z,19.65
2022-10-06T12:02:18.326Z,19.66
2022-10-06T12:03:18.244Z,19.66
2022-10-06T12:04:22.101Z,19.66
2022-10-06T12:05:52.322Z,19.63
2022-10-06T12:06:18.158Z,19.66
2022-10-06T12:07:18.155Z,19.69
2022-10-06T12:08:18.148Z,19.71
2022-10-06T12:09:18.161Z,19.65
2022-10-06T12:10:18.170Z,19.65
2022-10-06T12:11:18.158Z,19.62
2022-10-06T12:12:18.138Z,19.63
2022-10-06T12:14:00.117Z,19.69
2022-10-06T12:17:19.677Z,19.66
2022-10-06T12:18:18.127Z,19.71
2022-10-06T12:19:18.126Z,19.69
2022-10-06T12:20:18.123Z,19.68
2022-10-06T12:21:18.130Z,19.76
2022-10-06T12:22:18.128Z,19.66
2022-10-06T12:23:18.120Z,19.66
2022-10-06T12:24:18.127Z,19.62
2022-10-06T12:25:18.113Z,19.71
2022-10-06T12:26:18.140Z,19.65
2022-10-06T12:27:20.782Z,19.63
2022-10-06T12:28:18.194Z,19.61
2022-10-06T12:29:18.107Z,19.65
2022-10-06T12:30:18.109Z,19.74
2022-10-06T12:31:18.623Z,19.65
2022-10-06T12:32:18.113Z,19.80
2022-10-06T12:33:18.099Z,19.74
2022-10-06T12:34:18.108Z,19.71
2022-10-06T12:35:18.102Z,19.74
2022-10-06T12:36:18.106Z,19.68
2022-10-06T12:37:18.105Z,19.66
2022-10-06T12:38:18.124Z,19.74
2022-10-06T12:39:18.093Z,19.71
2022-10-06T12:40:18.085Z,19.65
2022-10-06T12:41:18.092Z,19.71
2022-10-06T12:42:18.106Z,19.77
2022-10-06T12:43:18.089Z,19.68
2022-10-06T12:44:18.078Z,19.69
2022-10-06T12:45:18.084Z,19.69
2022-10-06T12:46:18.133Z,19.73
2022-10-06T12:47:18.072Z,19.71
2022-10-06T12:48:18.069Z,19.76
2022-10-06T12:49:18.072Z,19.73
2022-10-06T12:50:18.069Z,19.71
2022-10-06T12:51:18.065Z,19.69
2022-10-06T12:52:18.069Z,19.73
2022-10-06T12:53:18.074Z,19.74
2022-10-06T12:54:18.065Z,19.74
2022-10-06T12:55:18.067Z,19.71
2022-10-06T12:56:18.063Z,19.74
2022-10-06T12:57:18.071Z,19.77
2022-10-06T12:58:18.088Z,19.76